Time;durP1;ratioP1;P1;durP2;ratioP2;P2;SDS_P1;SDS_P2;PMS_P1;PMS_P2;Temp;Humidity;BMP_temperature;BMP_pressure;BME280_temperature;BME280_humidity;BME280_pressure;Samples;Min_cycle;Max_cycle;Signal;HPM_P1;HPM_P2
2023/04/07 00:00:21;;;;;;;20.75;17.58;;;;;;;;;;5063867;28;20128;-87
2023/04/07 00:02:47;;;;;;;19.40;17.40;;;7.00;99.90;;;;;;5084559;28;20044;-87
2023/04/07 00:05:13;;;;;;;18.25;16.25;;;7.10;99.90;;;;;;5063308;28;20044;-87
2023/04/07 00:07:39;;;;;;;20.52;17.40;;;6.30;99.90;;;;;;5041695;28;20044;-86
2023/04/07 00:10:08;;;;;;;20.85;17.73;;;6.10;99.90;;;;;;5067914;28;20041;-86
2023/04/07 00:12:35;;;;;;;19.05;16.17;;;;;;;;;;5070632;28;20508;-86
2023/04/07 00:15:00;;;;;;;21.17;18.45;;;7.00;99.90;;;;;;5067786;28;20048;-86
2023/04/07 00:17:27;;;;;;;17.25;15.50;;;;;;;;;;5067665;28;20055;-86
2023/04/07 00:19:53;;;;;;;18.77;16.83;;;;;;;;;;5050946;28;20051;-86
2023/04/07 00:22:18;;;;;;;18.55;16.65;;;7.00;99.90;;;;;;5051507;28;20049;-86
2023/04/07 00:24:44;;;;;;;19.98;17.75;;;9.30;99.90;;;;;;5069071;28;20032;-86
2023/04/07 00:27:12;;;;;;;23.98;19.45;;;9.10;99.90;;;;;;5063772;28;20044;-86
2023/04/07 00:29:38;;;;;;;21.83;18.55;;;9.40;99.90;;;;;;5053016;28;20519;-86
2023/04/07 00:32:04;;;;;;;20.17;18.05;;;10.00;99.90;;;;;;5067968;28;20076;-87
2023/04/07 00:34:29;;;;;;;21.00;18.42;;;10.00;99.90;;;;;;5066378;28;20502;-86
2023/04/07 00:36:55;;;;;;;20.42;18.23;;;6.80;99.90;;;;;;5068119;28;20491;-86
2023/04/07 00:39:21;;;;;;;21.17;17.33;;;9.60;99.90;;;;;;5067336;28;20445;-84
2023/04/07 00:41:50;;;;;;;21.67;19.38;;;7.00;99.90;;;;;;5066827;28;20059;-85
2023/04/07 00:44:18;;;;;;;20.38;17.55;;;5.30;99.90;;;;;;5067301;28;20048;-86
2023/04/07 00:46:46;;;;;;;23.02;18.75;;;6.40;99.90;;;;;;5050856;28;20044;-86
2023/04/07 00:49:12;;;;;;;19.77;17.08;;;7.00;99.90;;;;;;5068194;28;20472;-85
2023/04/07 00:51:37;;;;;;;22.40;19.13;;;9.40;99.90;;;;;;5066948;28;20048;-85
2023/04/07 00:54:03;;;;;;;23.05;20.58;;;8.10;99.90;;;;;;5066960;28;20049;-86
2023/04/07 00:56:29;;;;;;;19.17;17.13;;;9.70;99.90;;;;;;5049436;28;20051;-85
2023/04/07 00:58:58;;;;;;;20.17;18.05;;;7.70;99.90;;;;;;5050704;28;20478;-86
2023/04/07 01:01:37;;;;;;;19.52;17.38;;;7.00;99.90;;;;;;5065807;28;20540;-86
2023/04/07 01:04:25;;;;;;;20.15;17.95;;;7.00;99.90;;;;;;5042680;28;20056;-85
2023/04/07 01:06:54;;;;;;;21.90;19.17;;;7.00;99.90;;;;;;5062436;28;20067;-85
2023/04/07 01:09:29;;;;;;;23.33;18.75;;;9.40;99.90;;;;;;5061035;28;20045;-85
2023/04/07 01:12:25;;;;;;;23.30;19.10;;;6.40;99.90;;;;;;5058895;28;20443;-86
2023/04/07 01:14:57;;;;;;;20.33;18.05;;;7.00;99.90;;;;;;5066984;28;20393;-87
2023/04/07 01:17:26;;;;;;;21.15;18.05;;;7.00;99.90;;;;;;5064757;28;20382;-86
2023/04/07 01:19:58;;;;;;;25.40;20.15;;;7.00;99.90;;;;;;5048789;28;20097;-85
2023/04/07 01:22:31;;;;;;;19.67;17.58;;;7.00;99.90;;;;;;5062516;28;20043;-85
2023/04/07 01:25:18;;;;;;;20.70;18.50;;;9.50;99.90;;;;;;5046709;28;20049;-86
2023/04/07 01:28:02;;;;;;;24.65;19.23;;;7.00;99.90;;;;;;5084304;28;20024;-86
2023/04/07 01:30:34;;;;;;;20.90;18.55;;;9.30;99.90;;;;;;5064186;28;20052;-86
2023/04/07 01:33:01;;;;;;;21.70;18.63;;;7.00;99.90;;;;;;5053277;28;20036;-86
2023/04/07 01:35:31;;;;;;;22.70;20.00;;;9.60;99.90;;;;;;5061115;28;20535;-86
2023/04/07 01:37:59;;;;;;;23.77;19.23;;;7.00;99.90;;;;;;5048329;28;20040;-86
2023/04/07 01:40:25;;;;;;;20.88;18.67;;;8.70;99.90;;;;;;5060970;28;20044;-87
2023/04/07 01:42:53;;;;;;;20.00;17.90;;;9.60;99.90;;;;;;5063257;28;20037;-87
2023/04/07 01:45:20;;;;;;;22.17;18.08;;;6.90;99.90;;;;;;5068061;28;20049;-85
2023/04/07 01:47:46;;;;;;;22.38;19.08;;;9.90;99.90;;;;;;5064796;28;20535;-87
2023/04/07 01:50:12;;;;;;;20.27;18.00;;;9.00;99.90;;;;;;5065537;28;20048;-86
2023/04/07 01:52:44;;;;;;;21.27;18.88;;;7.10;99.90;;;;;;5040614;28;20040;-86
2023/04/07 01:55:10;;;;;;;20.33;17.85;;;6.90;99.90;;;;;;5059725;28;20079;-86
2023/04/07 01:57:36;;;;;;;20.50;17.38;;;10.00;99.90;;;;;;5069392;28;20484;-86
2023/04/07 02:00:01;;;;;;;19.90;17.80;;;9.80;99.90;;;;;;5076720;28;20040;-86
2023/04/07 02:02:27;;;;;;;18.42;16.52;;;7.00;99.90;;;;;;5062244;28;20113;-86
2023/04/07 02:05:06;;;;;;;19.55;16.83;;;9.40;99.90;;;;;;5084996;28;20032;-87
2023/04/07 02:07:52;;;;;;;19.20;17.25;;;7.00;99.90;;;;;;5077504;28;20037;-86
2023/04/07 02:10:22;;;;;;;20.30;17.98;;;7.60;99.90;;;;;;5069085;28;20105;-86
2023/04/07 02:12:48;;;;;;;18.95;16.95;;;9.70;99.90;;;;;;5067240;28;20036;-85
2023/04/07 02:15:15;;;;;;;20.00;17.92;;;7.00;99.90;;;;;;5069146;28;20125;-86
2023/04/07 02:17:44;;;;;;;19.85;16.60;;;9.10;99.90;;;;;;5051305;28;20400;-86
2023/04/07 02:20:12;;;;;;;20.45;17.65;;;9.40;99.90;;;;;;5065080;28;20045;-85
2023/04/07 02:22:38;;;;;;;19.33;17.10;;;7.00;99.90;;;;;;5068664;28;20080;-87
2023/04/07 02:25:39;;;;;;;18.27;16.45;;;8.30;99.90;;;;;;5050500;28;20505;-87
2023/04/07 02:28:06;;;;;;;19.55;17.23;;;9.30;99.90;;;;;;4999788;28;20155;-86
2023/04/07 02:30:32;;;;;;;17.40;15.63;;;8.00;99.90;;;;;;5036336;28;20052;-86
2023/04/07 02:32:58;;;;;;;18.42;16.40;;;6.70;99.90;;;;;;5060719;28;20055;-86
2023/04/07 02:35:24;;;;;;;18.77;16.73;;;7.00;99.90;;;;;;5065924;28;20041;-86
2023/04/07 02:37:50;;;;;;;18.25;15.82;;;7.00;99.90;;;;;;5067896;28;20037;-86
2023/04/07 02:40:16;;;;;;;17.83;15.82;;;9.90;99.90;;;;;;5052208;28;20041;-86
2023/04/07 02:42:43;;;;;;;18.13;16.33;;;9.60;99.90;;;;;;5062660;28;20048;-86
2023/04/07 02:45:09;;;;;;;16.88;15.10;;;8.20;99.90;;;;;;5058379;28;20079;-86
2023/04/07 02:47:36;;;;;;;16.05;14.35;;;7.00;99.90;;;;;;5061465;28;20531;-86
2023/04/07 02:50:02;;;;;;;14.82;13.40;;;7.00;99.90;;;;;;5052441;28;20123;-86
2023/04/07 02:52:28;;;;;;;16.80;15.07;;;7.00;99.90;;;;;;5066090;28;20127;-86
2023/04/07 02:54:53;;;;;;;17.90;15.43;;;6.80;99.90;;;;;;5058262;28;20037;-87
2023/04/07 02:57:19;;;;;;;17.27;15.57;;;9.40;99.90;;;;;;5065709;28;20123;-86
2023/04/07 02:59:45;;;;;;;16.45;14.75;;;9.50;99.90;;;;;;5058736;28;20047;-87
2023/04/07 03:02:11;;;;;;;16.83;15.13;;;9.50;99.90;;;;;;5072255;28;20542;-86
2023/04/07 03:04:36;;;;;;;19.00;17.10;;;7.40;99.90;;;;;;5072039;28;20052;-87
2023/04/07 03:07:02;;;;;;;17.38;15.52;;;7.00;99.90;;;;;;5066995;28;20049;-87
2023/04/07 03:09:28;;;;;;;22.50;18.65;;;7.00;99.90;;;;;;5048925;28;20097;-87
2023/04/07 03:11:54;;;;;;;17.33;15.45;;;8.00;99.90;;;;;;5065199;28;20723;-86
2023/04/07 03:14:20;;;;;;;18.02;16.23;;;7.10;99.90;;;;;;5049210;28;20487;-87
2023/04/07 03:16:46;;;;;;;18.08;14.93;;;;;;;;;;5073410;28;20079;-87
2023/04/07 03:19:12;;;;;;;16.73;15.02;;;7.00;99.90;;;;;;5062162;28;20036;-86
2023/04/07 03:21:38;;;;;;;19.17;17.20;;;9.40;99.90;;;;;;5051037;28;20063;-87
2023/04/07 03:24:05;;;;;;;18.73;16.83;;;9.10;99.90;;;;;;5066394;28;20076;-87
2023/04/07 03:26:31;;;;;;;19.52;17.30;;;5.20;99.90;;;;;;5062556;28;20116;-87
2023/04/07 03:28:56;;;;;;;19.92;17.83;;;8.80;99.90;;;;;;5066376;28;20123;-87
2023/04/07 03:31:22;;;;;;;18.30;16.40;;;8.40;99.90;;;;;;5067393;28;20068;-87
2023/04/07 03:33:49;;;;;;;22.58;19.33;;;6.90;99.90;;;;;;5060935;28;20040;-87
2023/04/07 03:36:16;;;;;;;20.23;18.02;;;6.70;99.90;;;;;;5067359;28;20040;-87
2023/04/07 03:38:41;;;;;;;23.00;18.13;;;9.30;99.90;;;;;;5069735;28;20036;-87
2023/04/07 03:41:07;;;;;;;19.15;17.15;;;;;;;;;;5054771;28;20040;-87
2023/04/07 03:43:33;;;;;;;20.50;18.33;;;6.90;99.90;;;;;;5075828;28;20032;-88
2023/04/07 03:45:59;;;;;;;20.58;18.33;;;6.10;99.90;;;;;;5086945;28;20028;-87
2023/04/07 03:48:25;;;;;;;21.42;19.13;;;8.50;99.90;;;;;;5056561;28;20052;-86
2023/04/07 03:50:50;;;;;;;26.48;21.13;;;9.20;99.90;;;;;;5059048;28;20037;-87
2023/04/07 03:53:18;;;;;;;22.30;19.90;;;9.50;99.90;;;;;;5058208;28;20110;-88
2023/04/07 03:55:44;;;;;;;21.85;19.38;;;;;;;;;;5068024;28;20080;-87
2023/04/07 03:58:10;;;;;;;21.10;18.67;;;6.90;99.90;;;;;;5065949;28;20563;-88
2023/04/07 04:00:36;;;;;;;21.38;19.15;;;9.10;99.90;;;;;;5053253;28;20068;-87
2023/04/07 04:03:02;;;;;;;18.90;17.00;;;;;;;;;;5069749;28;20076;-86
2023/04/07 04:05:28;;;;;;;19.23;17.33;;;;;;;;;;5072129;28;20055;-87
2023/04/07 04:07:54;;;;;;;22.70;19.48;;;6.90;99.90;;;;;;5050645;28;20480;-86
2023/04/07 04:10:20;;;;;;;18.55;16.77;;;6.10;99.90;;;;;;5066715;28;20033;-87
2023/04/07 04:12:47;;;;;;;20.48;18.05;;;9.60;99.90;;;;;;5064236;28;20040;-87
2023/04/07 04:15:13;;;;;;;17.63;15.82;;;6.10;99.90;;;;;;5064366;28;20128;-87
2023/04/07 04:17:40;;;;;;;19.95;17.85;;;;;;;;;;5060134;28;20729;-87
2023/04/07 04:20:07;;;;;;;20.30;18.20;;;6.90;99.90;;;;;;5080135;28;20514;-87
2023/04/07 04:22:33;;;;;;;21.50;19.20;;;;;;;;;;5066097;28;20044;-87
2023/04/07 04:24:59;;;;;;;20.42;18.23;;;6.90;99.90;;;;;;5049276;28;20047;-87
2023/04/07 04:27:26;;;;;;;19.88;17.88;;;8.00;99.90;;;;;;5064978;28;20051;-86
2023/04/07 04:29:52;;;;;;;18.67;16.75;;;;;;;;;;5064066;28;20400;-88
2023/04/07 04:32:18;;;;;;;20.35;18.23;;;;;;;;;;5065450;28;20105;-87
2023/04/07 04:34:45;;;;;;;18.25;16.42;;;6.80;99.90;;;;;;5082046;28;20044;-87
2023/04/07 04:37:11;;;;;;;20.73;17.58;;;;;;;;;;5065888;28;20273;-88
2023/04/07 04:39:36;;;;;;;20.42;18.13;;;6.90;99.90;;;;;;5064916;28;20057;-87
2023/04/07 04:42:02;;;;;;;21.65;19.23;;;9.60;99.90;;;;;;5049158;28;20051;-88
2023/04/07 04:44:29;;;;;;;20.90;18.08;;;6.80;99.90;;;;;;5047020;28;20040;-87
2023/04/07 04:46:55;;;;;;;20.55;17.05;;;;;;;;;;5064866;28;20047;-87
2023/04/07 04:49:21;;;;;;;21.73;19.05;;;;;;;;;;5062352;28;20048;-88
2023/04/07 04:51:47;;;;;;;19.45;16.45;;;;;;;;;;5048860;28;20040;-88
2023/04/07 04:54:13;;;;;;;20.55;17.58;;;6.90;99.90;;;;;;5064021;28;20048;-87
2023/04/07 04:56:39;;;;;;;18.98;16.77;;;6.90;99.90;;;;;;5067258;28;20053;-87
2023/04/07 04:59:05;;;;;;;16.83;15.13;;;7.00;99.90;;;;;;5048807;28;20079;-88
2023/04/07 05:01:31;;;;;;;17.05;15.35;;;;;;;;;;5047530;28;20072;-88
2023/04/07 05:04:11;;;;;;;21.85;18.20;;;6.90;99.90;;;;;;5066695;28;20049;-87
2023/04/07 05:06:37;;;;;;;17.55;15.63;;;9.60;99.90;;;;;;5065320;28;20182;-89
2023/04/07 05:09:02;;;;;;;22.23;17.52;;;9.10;99.90;;;;;;5061701;28;20127;-87
2023/04/07 05:11:28;;;;;;;18.20;16.13;;;6.80;99.90;;;;;;5069149;28;20539;-88
2023/04/07 05:13:54;;;;;;;21.27;18.88;;;8.90;99.90;;;;;;5049248;28;20044;-88
2023/04/07 05:16:20;;;;;;;23.15;19.17;;;6.50;99.90;;;;;;5065154;28;20043;-88
2023/04/07 05:18:45;;;;;;;23.98;19.75;;;6.80;99.90;;;;;;5060174;28;20131;-88
2023/04/07 05:21:11;;;;;;;26.85;21.42;;;;;;;;;;5065947;28;20094;-87
2023/04/07 05:23:37;;;;;;;21.35;18.05;;;6.80;99.90;;;;;;5066685;28;20045;-88
2023/04/07 05:26:04;;;;;;;24.05;18.92;;;9.30;99.90;;;;;;5069714;28;20040;-87
2023/04/07 05:28:30;;;;;;;24.25;20.58;;;6.60;99.90;;;;;;5059980;28;20040;-88
2023/04/07 05:30:55;;;;;;;26.65;19.90;;;7.30;99.90;;;;;;5072607;28;20381;-87
2023/04/07 05:33:21;;;;;;;28.60;21.35;;;9.60;99.90;;;;;;5074485;28;20040;-86
2023/04/07 05:35:47;;;;;;;28.45;20.90;;;9.10;99.90;;;;;;5063213;28;20036;-87
2023/04/07 05:38:13;;;;;;;26.85;19.80;;;9.60;99.90;;;;;;5067568;28;20086;-86
2023/04/07 05:40:39;;;;;;;25.17;20.27;;;6.20;99.90;;;;;;5052352;28;20401;-86
2023/04/07 05:43:05;;;;;;;21.50;18.42;;;9.50;99.90;;;;;;5036180;28;20640;-85
2023/04/07 05:45:30;;;;;;;26.13;20.42;;;9.20;99.90;;;;;;5050967;28;20500;-86
2023/04/07 05:47:56;;;;;;;24.55;19.33;;;8.60;99.90;;;;;;5050739;28;20102;-87
2023/04/07 05:50:22;;;;;;;27.58;21.48;;;9.60;99.90;;;;;;5059500;28;20258;-88
2023/04/07 05:52:47;;;;;;;24.75;19.92;;;6.60;99.90;;;;;;5050946;28;20043;-86
2023/04/07 05:55:13;;;;;;;25.27;18.95;;;8.20;99.90;;;;;;5049051;28;20062;-88
2023/04/07 05:57:39;;;;;;;25.08;20.27;;;6.70;99.90;;;;;;5066285;28;20127;-89
2023/04/07 06:00:05;;;;;;;22.20;19.20;;;8.90;99.90;;;;;;5054127;28;20048;-89
2023/04/07 06:02:31;;;;;;;24.00;18.80;;;6.90;99.90;;;;;;5070062;28;20500;-87
2023/04/07 06:04:56;;;;;;;29.88;19.23;;;7.90;99.90;;;;;;5068944;28;20047;-88
2023/04/07 06:07:22;;;;;;;28.08;20.45;;;;;;;;;;5049882;28;20041;-88
2023/04/07 06:09:49;;;;;;;24.27;19.83;;;;;;;;;;5057127;28;20040;-88
2023/04/07 06:12:15;;;;;;;24.73;19.02;;;6.70;99.90;;;;;;5047565;28;20542;-87
2023/04/07 06:14:41;;;;;;;20.67;17.95;;;8.20;99.90;;;;;;5048762;28;20548;-89
2023/04/07 06:17:07;;;;;;;21.00;17.70;;;8.20;99.90;;;;;;5053953;28;20169;-87
2023/04/07 06:19:33;;;;;;;21.73;18.10;;;;;;;;;;5053176;28;20033;-89
2023/04/07 06:21:59;;;;;;;23.10;18.35;;;;;;;;;;5051254;28;20070;-88
2023/04/07 06:24:25;;;;;;;25.05;18.08;;;6.70;99.90;;;;;;5057279;28;20044;-88
2023/04/07 06:26:55;;;;;;;22.58;17.60;;;8.80;99.90;;;;;;5059374;28;20037;-88
2023/04/07 06:29:20;;;;;;;23.70;19.70;;;9.40;99.90;;;;;;5050267;28;20531;-87
2023/04/07 06:31:46;;;;;;;22.98;17.77;;;;;;;;;;5048978;28;20036;-88
2023/04/07 06:34:12;;;;;;;20.73;18.20;;;6.80;99.90;;;;;;5058763;28;20511;-85
2023/04/07 06:36:38;;;;;;;25.20;19.90;;;8.10;99.90;;;;;;5067914;28;20036;-84
2023/04/07 06:39:04;;;;;;;20.75;16.98;;;6.70;99.90;;;;;;5053473;28;20383;-88
2023/04/07 06:41:30;;;;;;;23.88;18.30;;;9.20;99.90;;;;;;5056899;28;20560;-88
2023/04/07 06:43:56;;;;;;;23.73;19.02;;;6.80;99.90;;;;;;5066670;28;20044;-89
2023/04/07 06:46:21;;;;;;;23.15;18.98;;;9.00;99.90;;;;;;4716243;28;10000670;-85
2023/04/07 06:48:47;;;;;;;22.40;18.98;;;9.20;99.90;;;;;;5050802;28;20067;-88
2023/04/07 06:51:13;;;;;;;23.33;18.25;;;6.40;99.90;;;;;;5071410;28;20044;-86
2023/04/07 06:53:40;;;;;;;22.27;18.63;;;;;;;;;;5065669;28;20826;-88
2023/04/07 06:56:08;;;;;;;21.75;18.25;;;6.90;99.90;;;;;;5067588;28;20567;-85
2023/04/07 06:58:45;;;;;;;21.13;17.95;;;9.20;99.90;;;;;;5062816;28;20055;-90
2023/04/07 07:01:11;;;;;;;22.95;17.98;;;8.20;99.90;;;;;;5045868;28;20128;-90
2023/04/07 07:03:39;;;;;;;23.02;18.33;;;9.30;99.90;;;;;;5049057;28;20116;-88
2023/04/07 07:24:55;;;;;;;25.40;18.83;;;7.20;99.90;;;;;;5062938;28;20050;-95
2023/04/07 08:05:47;;;;;;;20.38;16.45;;;5.80;99.90;;;;;;5066777;28;20060;-84
2023/04/07 09:24:53;;;;;;;10.32;9.18;;;9.00;99.90;;;;;;5417635;23;20079;-92
2023/04/07 09:27:19;;;;;;;10.82;9.68;;;;;;;;;;5054744;28;20056;-86
2023/04/07 09:29:47;;;;;;;11.18;9.93;;;8.40;99.90;;;;;;5040770;28;20036;-86
2023/04/07 09:32:34;;;;;;;12.23;9.13;;;8.50;99.90;;;;;;5052623;28;20072;-87
2023/04/07 09:35:02;;;;;;;9.37;8.37;;;11.40;99.90;;;;;;4697292;28;10001100;-87
2023/04/07 09:37:28;;;;;;;11.32;9.43;;;;;;;;;;5048856;28;20123;-85
2023/04/07 09:39:55;;;;;;;11.85;10.32;;;;;;;;;;5063536;28;20037;-88
2023/04/07 09:42:21;;;;;;;10.63;9.48;;;8.60;99.90;;;;;;5029270;28;20507;-88
2023/04/07 09:44:47;;;;;;;11.60;10.20;;;6.80;99.90;;;;;;5032951;28;20040;-88
2023/04/07 09:47:13;;;;;;;10.63;9.57;;;8.60;99.90;;;;;;5033252;28;20881;-86
2023/04/07 09:49:52;;;;;;;11.57;10.38;;;9.50;99.90;;;;;;5067771;28;20041;-85
2023/04/07 09:52:22;;;;;;;12.00;10.73;;;8.70;99.90;;;;;;5054021;28;20052;-87
2023/04/07 09:54:49;;;;;;;12.38;10.55;;;10.20;99.90;;;;;;5054704;28;20135;-86
2023/04/07 09:57:17;;;;;;;10.95;9.75;;;;;;;;;;5046461;28;20045;-88
2023/04/07 09:59:44;;;;;;;11.98;10.65;;;8.80;99.90;;;;;;5053314;28;20080;-88
2023/04/07 10:02:13;;;;;;;11.68;10.48;;;7.50;99.90;;;;;;5031755;28;20159;-89
2023/04/07 10:04:40;;;;;;;11.18;10.05;;;10.30;99.90;;;;;;5030511;28;20785;-83
2023/04/07 10:07:16;;;;;;;10.15;9.25;;;11.70;99.90;;;;;;5032291;28;20079;-91
2023/04/07 10:12:35;;;;;;;12.43;10.40;;;9.00;99.90;;;;;;5067510;22;20064;-89
2023/04/07 10:15:04;;;;;;;11.05;9.18;;;7.30;99.90;;;;;;5027747;28;20055;-89
2023/04/07 10:17:33;;;;;;;11.50;10.30;;;9.00;99.90;;;;;;5036482;28;20033;-89
2023/04/07 10:20:06;;;;;;;11.07;9.88;;;9.60;99.90;;;;;;5051635;28;20531;-89
2023/04/07 10:22:45;;;;;;;10.02;9.00;;;9.00;99.90;;;;;;5051066;28;20070;-89
2023/04/07 10:25:15;;;;;;;10.68;9.40;;;9.10;99.90;;;;;;5060404;28;20064;-85
2023/04/07 10:27:52;;;;;;;11.55;10.45;;;11.10;99.90;;;;;;5052958;28;20048;-87
2023/04/07 10:30:24;;;;;;;10.65;9.55;;;9.00;99.90;;;;;;5038154;28;20052;-85
2023/04/07 10:32:52;;;;;;;11.00;10.00;;;8.70;99.90;;;;;;5034239;28;20071;-85
2023/04/07 10:35:18;;;;;;;9.68;8.77;;;10.30;99.90;;;;;;5038816;28;20055;-88
2023/04/07 10:38:05;;;;;;;11.20;9.75;;;9.00;99.90;;;;;;5049210;28;20072;-84
2023/04/07 10:40:31;;;;;;;11.70;9.88;;;8.90;99.90;;;;;;5054637;28;20063;-85
2023/04/07 10:42:57;;;;;;;11.43;9.90;;;8.90;99.90;;;;;;5034239;28;20040;-89
2023/04/07 10:45:48;;;;;;;12.52;10.50;;;10.20;99.90;;;;;;5035967;28;20044;-85
2023/04/07 10:48:16;;;;;;;12.18;10.95;;;9.00;99.90;;;;;;5028499;28;20044;-84
2023/04/07 10:50:41;;;;;;;12.25;11.05;;;11.50;99.90;;;;;;5033828;28;20045;-87
2023/04/07 10:53:10;;;;;;;12.98;10.32;;;10.90;99.90;;;;;;5049377;28;20378;-89
2023/04/07 10:55:40;;;;;;;11.48;10.05;;;9.00;99.90;;;;;;5035756;28;20045;-84
2023/04/07 10:58:20;;;;;;;13.95;9.32;;;9.00;99.90;;;;;;5068782;28;20329;-83
2023/04/07 11:01:05;;;;;;;10.80;9.27;;;9.10;99.90;;;;;;5032803;28;20555;-83
2023/04/07 11:03:36;;;;;;;8.85;7.95;;;10.50;99.90;;;;;;5033592;28;20055;-84
2023/04/07 11:06:12;;;;;;;8.95;8.05;;;9.20;99.90;;;;;;5042684;28;20032;-87
2023/04/07 11:08:43;;;;;;;8.75;7.57;;;9.30;99.90;;;;;;5037347;28;20040;-88
2023/04/07 11:11:14;;;;;;;9.60;8.23;;;11.90;99.90;;;;;;5046471;28;20071;-92
2023/04/07 11:13:46;;;;;;;8.10;7.30;;;9.40;99.90;;;;;;5052064;28;20551;-90
2023/04/07 11:16:13;;;;;;;8.20;7.43;;;9.40;99.90;;;;;;5068809;28;20037;-90
2023/04/07 11:18:40;;;;;;;9.70;8.70;;;9.30;99.90;;;;;;5051715;28;20062;-88
2023/04/07 11:21:06;;;;;;;9.52;8.52;;;10.50;99.90;;;;;;5052002;28;20397;-83
2023/04/07 11:23:39;;;;;;;9.02;8.23;;;11.00;99.90;;;;;;5066737;28;20392;-88
2023/04/07 11:26:06;;;;;;;8.85;8.05;;;11.70;99.90;;;;;;5042881;28;20557;-85
2023/04/07 11:28:32;;;;;;;9.07;8.10;;;8.30;99.90;;;;;;5032781;28;20036;-84
2023/04/07 11:30:58;;;;;;;10.13;9.13;;;11.80;99.90;;;;;;4672318;28;10000150;-83
2023/04/07 11:41:43;;;;;;;9.68;8.43;;;9.50;99.90;;;;;;5022867;28;20105;-89
2023/04/07 11:44:47;;;;;;;303.15;33.60;;;9.50;99.90;;;;;;5021180;28;20151;-86
2023/04/07 11:48:05;;;;;;;13.43;8.63;;;9.70;99.90;;;;;;4994189;28;20050;-92
2023/04/07 12:09:57;;;;;;;13.02;9.18;;;9.90;99.90;;;;;;5062367;28;20039;-91
2023/04/07 12:16:56;;;;;;;13.82;8.90;;;9.90;99.90;;;;;;5053466;28;20052;-89
2023/04/07 12:19:27;;;;;;;10.60;9.05;;;10.00;99.90;;;;;;5009141;28;20191;-85
2023/04/07 12:21:53;;;;;;;9.57;8.30;;;10.00;99.90;;;;;;5044759;28;20767;-84
2023/04/07 12:24:21;;;;;;;10.63;8.55;;;12.40;99.90;;;;;;5065202;28;20060;-82
2023/04/07 12:26:48;;;;;;;11.25;8.70;;;10.10;99.90;;;;;;5047933;28;20047;-83
2023/04/07 12:29:16;;;;;;;8.18;7.47;;;10.10;99.90;;;;;;5029048;28;20674;-87
2023/04/07 12:31:42;;;;;;;9.45;8.55;;;10.30;99.90;;;;;;5040986;28;20128;-88
2023/04/07 12:34:08;;;;;;;10.00;9.00;;;10.40;99.90;;;;;;5063402;28;20076;-88
2023/04/07 12:36:35;;;;;;;10.20;9.20;;;10.50;99.90;;;;;;5039365;28;20383;-85
2023/04/07 12:39:00;;;;;;;12.82;8.60;;;12.20;99.90;;;;;;5037028;28;20075;-87
2023/04/07 12:41:26;;;;;;;8.15;7.43;;;12.90;99.90;;;;;;5052038;28;20075;-89
2023/04/07 12:43:52;;;;;;;8.57;7.75;;;10.80;99.90;;;;;;5035744;28;20132;-84
2023/04/07 12:46:20;;;;;;;7.75;6.95;;;13.40;99.90;;;;;;5054193;28;20060;-85
2023/04/07 12:48:46;;;;;;;7.97;7.18;;;11.80;99.90;;;;;;5067591;28;20066;-83
2023/04/07 12:51:12;;;;;;;8.55;7.75;;;11.30;99.90;;;;;;5065012;28;20048;-83
2023/04/07 12:53:38;;;;;;;7.40;6.70;;;12.90;99.90;;;;;;5065270;28;20041;-84
2023/04/07 12:56:04;;;;;;;7.63;6.88;;;14.30;99.90;;;;;;5048611;28;20434;-83
2023/04/07 12:58:29;;;;;;;7.80;7.10;;;11.90;99.90;;;;;;5072841;28;20396;-84
2023/04/07 13:00:55;;;;;;;7.43;6.72;;;12.00;99.90;;;;;;5055150;28;20037;-83
2023/04/07 13:03:22;;;;;;;7.82;7.00;;;14.20;99.90;;;;;;5034017;28;20041;-89
2023/04/07 13:05:50;;;;;;;7.70;7.00;;;13.50;99.90;;;;;;5051210;28;20096;-90
2023/04/07 13:08:15;;;;;;;6.70;6.10;;;10.80;99.90;;;;;;5049492;28;20040;-88
2023/04/07 13:10:41;;;;;;;6.05;5.55;;;12.50;99.90;;;;;;5051156;28;20402;-93
2023/04/07 13:13:07;;;;;;;6.38;5.75;;;12.40;99.90;;;;;;5063023;28;20374;-93
2023/04/07 13:15:33;;;;;;;5.97;5.47;;;12.10;99.90;;;;;;5054386;28;20048;-89
2023/04/07 13:17:58;;;;;;;6.15;5.55;;;14.10;99.90;;;;;;5036653;28;20041;-94
2023/04/07 13:20:29;;;;;;;5.88;5.38;;;;;;;;;;5053254;28;20048;-90
2023/04/07 13:22:55;;;;;;;5.72;5.22;;;12.60;99.90;;;;;;5036282;28;20032;-92
2023/04/07 13:25:22;;;;;;;6.80;4.78;;;12.80;99.90;;;;;;5035931;28;20070;-89
2023/04/07 13:27:47;;;;;;;5.40;4.90;;;12.60;99.90;;;;;;5052145;28;20491;-90
2023/04/07 13:30:13;;;;;;;4.82;4.43;;;12.80;99.90;;;;;;5051708;28;20048;-93
2023/04/07 13:32:40;;;;;;;4.53;4.13;;;12.60;99.90;;;;;;5052341;28;20562;-91
2023/04/07 13:35:09;;;;;;;3.55;3.35;;;12.80;99.90;;;;;;5053036;28;20496;-93
2023/04/07 13:37:35;;;;;;;4.88;3.40;;;;;;;;;;5047222;28;20036;-90
2023/04/07 13:40:02;;;;;;;4.60;3.60;;;;;;;;;;5060255;28;20098;-89
2023/04/07 13:42:28;;;;;;;3.75;3.22;;;;;;;;;;5069211;28;20068;-92
2023/04/07 13:44:53;;;;;;;4.40;4.00;;;12.60;99.90;;;;;;5040517;28;20431;-93
2023/04/07 13:47:20;;;;;;;3.03;2.83;;;;;;;;;;5035361;28;20044;-90
2023/04/07 13:49:50;;;;;;;3.80;3.50;;;12.50;99.90;;;;;;5057100;28;20131;-87
2023/04/07 13:52:17;;;;;;;3.95;3.65;;;;;;;;;;5063088;28;20068;-84
2023/04/07 13:54:44;;;;;;;3.67;3.38;;;12.30;99.90;;;;;;5053317;28;20072;-88
2023/04/07 13:57:11;;;;;;;5.30;4.80;;;12.30;99.90;;;;;;5054305;28;20059;-86
2023/04/07 13:59:36;;;;;;;5.82;5.18;;;12.20;99.90;;;;;;5053289;28;20087;-87
2023/04/07 14:02:03;;;;;;;4.65;4.30;;;12.20;99.90;;;;;;5035394;28;20052;-85
2023/04/07 14:04:29;;;;;;;4.20;3.90;;;12.20;99.90;;;;;;5051035;28;20040;-89
2023/04/07 14:06:55;;;;;;;4.30;4.00;;;13.60;99.90;;;;;;5036924;28;20121;-88
2023/04/07 14:09:20;;;;;;;4.25;3.95;;;12.50;99.90;;;;;;5036282;28;20041;-86
2023/04/07 14:11:47;;;;;;;5.13;4.63;;;14.20;99.90;;;;;;5054349;28;20044;-89
2023/04/07 14:14:12;;;;;;;4.72;4.10;;;12.40;99.90;;;;;;5053250;28;20040;-88
2023/04/07 14:16:38;;;;;;;5.13;4.72;;;14.20;99.90;;;;;;5052800;28;20090;-86
2023/04/07 14:19:04;;;;;;;6.57;4.65;;;12.90;99.90;;;;;;5058569;28;20083;-88
2023/04/07 14:21:30;;;;;;;4.85;4.45;;;11.90;99.90;;;;;;5056192;28;20035;-88
2023/04/07 14:23:58;;;;;;;5.50;5.00;;;12.50;99.90;;;;;;5036313;28;20480;-87
2023/04/07 14:26:25;;;;;;;4.55;4.25;;;12.20;99.90;;;;;;5063186;28;20474;-86
2023/04/07 14:28:54;;;;;;;4.72;4.20;;;13.70;99.90;;;;;;5074372;28;20051;-86
2023/04/07 14:31:20;;;;;;;5.38;4.88;;;12.20;99.90;;;;;;5053491;28;20036;-88
2023/04/07 14:33:46;;;;;;;6.38;5.78;;;;;;;;;;5052840;28;20198;-86
2023/04/07 14:36:16;;;;;;;5.80;5.30;;;12.20;99.90;;;;;;5036208;28;20045;-86
2023/04/07 14:38:42;;;;;;;5.88;5.30;;;;;;;;;;5020301;28;20190;-87
2023/04/07 14:41:09;;;;;;;5.20;4.80;;;12.20;99.90;;;;;;5053635;28;20044;-86
2023/04/07 14:43:35;;;;;;;6.60;5.78;;;12.20;99.90;;;;;;5035550;28;20032;-87
2023/04/07 14:46:01;;;;;;;5.13;4.72;;;12.20;99.90;;;;;;5036585;28;20535;-86
2023/04/07 14:48:27;;;;;;;5.65;5.15;;;12.20;99.90;;;;;;5038034;28;20117;-86
2023/04/07 14:50:54;;;;;;;5.72;5.20;;;12.30;99.90;;;;;;5035960;28;20047;-87
2023/04/07 14:53:22;;;;;;;6.10;5.53;;;14.70;99.90;;;;;;5052570;28;20044;-85
2023/04/07 14:55:48;;;;;;;7.45;5.97;;;11.70;99.90;;;;;;5053589;28;20037;-86
2023/04/07 14:58:14;;;;;;;6.88;6.22;;;;;;;;;;5068876;28;20091;-86
2023/04/07 15:00:40;;;;;;;5.93;5.35;;;12.20;99.90;;;;;;5052648;28;20040;-87
2023/04/07 15:03:05;;;;;;;6.05;5.55;;;12.30;99.90;;;;;;5035599;28;20056;-87
2023/04/07 15:05:31;;;;;;;6.50;5.95;;;11.50;99.90;;;;;;5053409;28;20771;-88
2023/04/07 15:07:57;;;;;;;6.22;5.65;;;;;;;;;;5053783;28;20047;-88
2023/04/07 15:10:24;;;;;;;7.10;5.20;;;;;;;;;;5052296;28;20041;-88
2023/04/07 15:12:50;;;;;;;6.35;5.85;;;;;;;;;;5037204;28;20201;-87
2023/04/07 15:15:16;;;;;;;6.28;5.78;;;12.10;99.90;;;;;;5038717;28;20044;-87
2023/04/07 15:17:42;;;;;;;6.10;5.60;;;12.40;99.90;;;;;;5062489;28;20021;-86
2023/04/07 15:20:11;;;;;;;6.22;5.72;;;14.40;99.90;;;;;;5068396;28;20124;-86
2023/04/07 15:22:37;;;;;;;6.00;5.50;;;12.00;99.90;;;;;;5039454;28;20048;-87
2023/04/07 15:25:05;;;;;;;7.13;6.53;;;14.20;99.90;;;;;;5037731;28;20041;-87
2023/04/07 15:27:34;;;;;;;5.88;5.38;;;;;;;;;;5060169;28;20484;-87
2023/04/07 15:30:00;;;;;;;7.35;6.65;;;12.00;99.90;;;;;;5036613;28;20083;-87
2023/04/07 15:32:29;;;;;;;6.82;6.32;;;12.00;99.90;;;;;;5035847;28;20041;-85
2023/04/07 15:34:54;;;;;;;7.97;6.65;;;11.90;99.90;;;;;;5035764;28;20079;-87
2023/04/07 15:37:20;;;;;;;7.68;6.43;;;14.40;99.90;;;;;;5035792;28;20076;-87
2023/04/07 15:39:47;;;;;;;7.25;6.60;;;10.00;99.90;;;;;;5039604;28;20102;-86
2023/04/07 15:42:12;;;;;;;6.85;6.25;;;12.20;99.90;;;;;;5035101;28;20044;-87
2023/04/07 15:44:39;;;;;;;7.65;6.68;;;11.90;99.90;;;;;;5068859;28;20047;-86